HSKO2: Arkansas River, Haskell, OK

Data processed at Sat Dec 09 2017 23:13


All information presented herein is the property of the government of the United States of America and may be revised or deleted at any time without prior notice.
Dissemination of this information without the expressed written consent of the Public Affairs Office, Tulsa District U.S. Army Corps of Engineers is strictly prohibited.
These data are gathered electronically and, as presented, have not undergone any form of quality control. These data are not guaranteed to be valid or correct.
Go to home page.
Go to station list.

Upstream stations:

Downstream station:
Previous Day
Next Day
Current Day
    
SHEF ID:       HSKO2     Arkansas River near Haskell, OK
STATION TYPE:  

               PRECIP     STAGE  STAGE(2)  RIV-FLOW  BAT-LOAD
                   in        ft        ft       cfs      volt
              Ccp-Rev   Ccp-Rev   Ccp-Rev   Ccp-Rev   Ccp-Rev
(US/Central)
12/07 00:00      0.00      4.57      4.41      3974     12.49
12/07 01:00      0.00      4.50      4.38      3845     12.49
12/07 02:00      0.00      4.40      4.32      3664     12.41
12/07 03:00      0.00      4.30      4.25      3482     12.41
12/07 04:00      0.00      4.19      4.16      3283     12.41
12/07 05:00      0.00      4.09      4.06      3105     12.41
12/07 06:00      0.00      4.00      3.98      2949     12.33
12/07 07:00      0.00      4.01      3.95      2966     12.25
12/07 08:00      0.00      4.09      4.00      3105     12.25
12/07 09:00      0.00      4.21      4.14      3320     13.44
12/07 10:00      0.00      4.37      4.31      3610     13.53
12/07 11:00      0.00      4.50      4.39      3845     13.53
12/07 12:00      0.00      4.55      4.46      3937     13.53
12/07 13:00      0.00      4.61      4.52      4048     13.60
12/07 14:00      0.00      4.59      4.52      4011     13.60
12/07 15:00      0.00      4.60      4.50      4029     13.53
12/07 16:00      0.00      4.55      4.46      3937      ----
12/07 17:00      0.00      4.54      4.42      3918     13.44
12/07 18:00      0.00      4.54      4.40      3918     13.13
12/07 19:00      0.00      4.55      4.40      3937     12.73
12/07 20:00      0.00      4.58      4.49      3992     12.57
12/07 21:00      0.00      4.62      4.47      4066     12.57
12/07 22:00      0.00      4.65      4.48      4123     12.49
12/07 23:00      0.00      4.65      4.49      4123     12.49